createdAt,value
2022-12-05T00:08:25.326Z,15.95
2022-12-05T00:10:59.880Z,14.30
2022-12-05T00:36:44.390Z,15.25
2022-12-05T01:26:35.674Z,12.55
2022-12-05T01:29:46.076Z,11.68
2022-12-05T02:02:56.198Z,7.35
2022-12-05T02:05:56.628Z,7.75
2022-12-05T02:11:10.143Z,7.55
2022-12-05T02:57:42.669Z,11.13
2022-12-05T03:10:54.895Z,10.18
2022-12-05T03:13:32.007Z,10.18
2022-12-05T03:22:03.335Z,11.30
2022-12-05T03:24:57.399Z,9.38
2022-12-05T03:28:23.815Z,14.75
2022-12-05T03:57:01.382Z,12.95
2022-12-05T04:00:22.987Z,17.35
2022-12-05T04:03:40.405Z,19.48
2022-12-05T04:10:25.286Z,17.02
2022-12-05T04:17:53.757Z,18.35
2022-12-05T05:08:29.209Z,14.77
2022-12-05T05:11:16.379Z,11.77
2022-12-05T05:14:27.186Z,11.43
2022-12-05T05:17:02.337Z,16.30
2022-12-05T05:19:31.375Z,17.70
2022-12-05T05:22:10.296Z,10.35
2022-12-05T05:24:43.790Z,12.60
2022-12-05T05:27:14.038Z,15.50
2022-12-05T05:30:04.103Z,18.52
2022-12-05T05:32:35.026Z,16.80
2022-12-05T05:35:21.214Z,15.52
2022-12-05T05:41:26.880Z,13.43
2022-12-05T05:44:39.995Z,9.55
2022-12-05T05:47:16.457Z,9.05
2022-12-05T05:57:23.536Z,8.85
2022-12-05T06:08:00.858Z,9.18
2022-12-05T06:10:37.396Z,8.57
2022-12-05T06:13:06.207Z,9.60
2022-12-05T06:15:35.035Z,10.35
2022-12-05T06:18:04.788Z,8.63
2022-12-05T06:20:33.481Z,10.52
2022-12-05T06:23:04.329Z,11.60
2022-12-05T06:25:34.919Z,12.90
2022-12-05T06:28:10.390Z,11.60
2022-12-05T06:30:44.315Z,9.77
2022-12-05T06:33:12.825Z,11.88
2022-12-05T06:35:41.996Z,12.88
2022-12-05T06:38:11.049Z,13.55
2022-12-05T06:40:41.538Z,12.52
2022-12-05T06:43:12.609Z,9.52
2022-12-05T06:45:41.601Z,7.50
2022-12-05T06:48:10.319Z,9.63
2022-12-05T06:50:38.887Z,6.45
2022-12-05T06:53:08.382Z,5.38
2022-12-05T06:55:37.920Z,8.20
2022-12-05T06:58:06.617Z,12.20
2022-12-05T07:00:54.275Z,8.70
2022-12-05T07:03:23.218Z,9.20
2022-12-05T07:05:52.550Z,13.27
2022-12-05T07:08:21.319Z,6.85
2022-12-05T07:10:53.869Z,10.77
2022-12-05T07:13:24.727Z,8.00
2022-12-05T07:15:59.521Z,7.97
2022-12-05T07:18:29.356Z,8.52
2022-12-05T07:21:14.432Z,10.68
2022-12-05T07:23:45.052Z,5.97
2022-12-05T07:26:15.949Z,6.72
2022-12-05T07:28:46.868Z,9.13
2022-12-05T07:31:20.426Z,11.93
2022-12-05T07:33:49.915Z,7.25
2022-12-05T07:36:21.040Z,9.10
2022-12-05T07:38:51.143Z,8.40
2022-12-05T07:41:23.929Z,10.95
2022-12-05T07:43:53.084Z,11.50
2022-12-05T07:46:23.591Z,10.05
2022-12-05T07:48:53.054Z,13.18
2022-12-05T07:51:22.351Z,10.32
2022-12-05T07:53:51.055Z,7.82
2022-12-05T07:56:20.728Z,9.60
2022-12-05T07:58:51.772Z,10.82
2022-12-05T08:01:24.460Z,11.00
2022-12-05T08:03:55.307Z,11.35
2022-12-05T08:06:26.977Z,10.65
2022-12-05T08:08:56.715Z,13.77
2022-12-05T08:11:30.380Z,13.15
2022-12-05T08:13:59.877Z,13.50
2022-12-05T08:16:32.621Z,11.43
2022-12-05T08:19:06.645Z,13.27
2022-12-05T08:21:37.418Z,20.58
2022-12-05T08:24:07.184Z,12.38
2022-12-05T08:26:37.932Z,11.50
2022-12-05T08:29:09.100Z,12.75
2022-12-05T08:31:43.980Z,12.52
2022-12-05T08:34:15.641Z,18.33
2022-12-05T08:36:44.883Z,11.02
2022-12-05T08:39:16.484Z,9.80
2022-12-05T08:41:45.989Z,7.78
2022-12-05T08:44:17.298Z,5.80
2022-12-05T08:46:49.953Z,7.30
2022-12-05T08:49:20.280Z,10.80
2022-12-05T08:51:48.932Z,9.38
2022-12-05T08:54:17.802Z,9.95
2022-12-05T08:56:46.753Z,10.50
2022-12-05T09:03:01.984Z,11.52
2022-12-05T09:05:30.919Z,12.10
2022-12-05T09:08:00.103Z,10.13
2022-12-05T09:10:29.652Z,4.55
2022-12-05T09:16:01.196Z,5.78
2022-12-05T09:18:31.846Z,8.95
2022-12-05T09:21:00.463Z,4.03
2022-12-05T09:23:30.215Z,6.72
2022-12-05T09:26:07.996Z,5.70
2022-12-05T09:28:44.600Z,8.48
2022-12-05T09:31:15.554Z,14.40
2022-12-05T09:33:49.223Z,6.30
2022-12-05T09:36:21.449Z,8.68
2022-12-05T09:38:50.670Z,11.57
2022-12-05T09:41:46.071Z,9.70
2022-12-05T09:44:23.936Z,11.45
2022-12-05T09:46:57.827Z,9.65
2022-12-05T09:49:30.578Z,10.13
2022-12-05T09:52:00.498Z,12.25
2022-12-05T09:54:30.469Z,8.32
2022-12-05T09:56:59.955Z,10.27
2022-12-05T09:59:29.164Z,6.35
2022-12-05T10:02:07.688Z,11.32
2022-12-05T10:05:00.928Z,11.32
2022-12-05T10:07:41.067Z,9.23
2022-12-05T10:10:26.861Z,8.98
2022-12-05T10:13:10.481Z,13.73
2022-12-05T10:15:45.952Z,14.45
2022-12-05T10:18:31.567Z,13.10
2022-12-05T10:21:06.766Z,12.05
2022-12-05T10:24:00.056Z,12.55
2022-12-05T10:26:38.863Z,12.27
2022-12-05T10:29:20.446Z,8.43
2022-12-05T10:31:51.166Z,7.72
2022-12-05T10:34:31.357Z,13.10
2022-12-05T10:37:10.670Z,8.63
2022-12-05T10:39:40.021Z,7.40
2022-12-05T10:42:14.584Z,11.30
2022-12-05T10:44:43.893Z,6.53
2022-12-05T10:47:13.893Z,7.10
2022-12-05T10:49:44.591Z,6.95
2022-12-05T10:52:17.180Z,9.70
2022-12-05T10:54:51.059Z,10.50
2022-12-05T10:57:25.095Z,7.95
2022-12-05T10:59:55.126Z,8.75
2022-12-05T11:02:29.660Z,6.93
2022-12-05T11:04:59.939Z,4.97
2022-12-05T11:07:33.846Z,11.68
2022-12-05T11:10:05.032Z,7.30
2022-12-05T11:12:40.598Z,11.13
2022-12-05T11:15:25.493Z,9.35
2022-12-05T11:17:56.286Z,6.20
2022-12-05T11:20:42.878Z,7.80
2022-12-05T11:23:31.549Z,5.35
2022-12-05T11:26:00.772Z,6.28
2022-12-05T11:28:36.738Z,4.78
2022-12-05T11:31:12.777Z,3.55
2022-12-05T11:33:42.223Z,7.30
2022-12-05T11:36:19.735Z,5.10
2022-12-05T11:38:50.201Z,5.68
2022-12-05T11:41:45.625Z,9.60
2022-12-05T11:44:51.438Z,11.73
2022-12-05T11:47:31.740Z,8.68
2022-12-05T11:50:21.033Z,11.55
2022-12-05T11:53:05.095Z,7.85
2022-12-05T11:55:42.942Z,10.23
2022-12-05T11:58:39.907Z,5.28
2022-12-05T12:01:21.802Z,4.97
2022-12-05T12:04:19.599Z,5.22
2022-12-05T12:06:57.462Z,6.70
2022-12-05T12:10:28.436Z,7.70
2022-12-05T12:13:19.415Z,6.38
2022-12-05T12:16:11.909Z,7.05
2022-12-05T12:19:08.814Z,8.20
2022-12-05T12:21:52.161Z,7.93
2022-12-05T12:24:29.277Z,10.25
2022-12-05T12:27:07.280Z,8.02
2022-12-05T12:29:54.020Z,13.18
2022-12-05T12:32:34.095Z,12.07
2022-12-05T12:35:24.048Z,8.77
2022-12-05T12:38:10.058Z,6.20
2022-12-05T12:40:48.401Z,6.90
2022-12-05T12:43:54.377Z,9.23
2022-12-05T12:46:39.433Z,9.27
2022-12-05T12:49:29.031Z,10.60
2022-12-05T12:52:03.954Z,8.88
2022-12-05T12:55:07.287Z,11.95
2022-12-05T12:57:54.715Z,10.15
2022-12-05T13:00:39.491Z,11.95
2022-12-05T13:03:17.917Z,7.65
2022-12-05T13:05:51.165Z,11.18
2022-12-05T13:08:26.578Z,11.13
2022-12-05T13:10:56.118Z,4.53
2022-12-05T13:13:31.510Z,5.80
2022-12-05T13:16:03.428Z,6.47
2022-12-05T13:18:33.840Z,5.00
2022-12-05T13:21:05.231Z,8.95
2022-12-05T13:23:38.057Z,8.68
2022-12-05T13:26:12.661Z,9.77
2022-12-05T13:28:49.702Z,7.72
2022-12-05T13:31:19.749Z,7.53
2022-12-05T13:33:51.908Z,7.30
2022-12-05T13:36:40.024Z,12.18
2022-12-05T13:39:37.700Z,7.88
2022-12-05T13:42:15.788Z,8.65
2022-12-05T13:44:47.262Z,7.63
2022-12-05T13:48:40.717Z,9.73
2022-12-05T13:51:15.420Z,10.23
2022-12-05T13:53:48.700Z,11.00
2022-12-05T13:56:29.190Z,9.63
2022-12-05T13:58:59.394Z,12.52
2022-12-05T14:01:55.676Z,8.85
2022-12-05T14:04:48.435Z,12.05
2022-12-05T14:20:50.867Z,14.25
2022-12-05T14:23:46.087Z,14.90
2022-12-05T14:26:32.711Z,8.82
2022-12-05T14:29:17.461Z,8.90
2022-12-05T14:32:04.702Z,12.80
2022-12-05T14:34:39.525Z,12.57
2022-12-05T14:37:27.930Z,8.10
2022-12-05T14:39:59.860Z,12.98
2022-12-05T14:42:45.819Z,10.30
2022-12-05T14:45:37.923Z,10.07
2022-12-05T14:48:27.067Z,10.63
2022-12-05T14:50:56.820Z,8.70
2022-12-05T14:53:34.825Z,11.30
2022-12-05T14:56:18.264Z,9.68
2022-12-05T14:58:58.079Z,8.95
2022-12-05T15:01:37.957Z,12.52
2022-12-05T15:04:21.424Z,7.80
2022-12-05T15:06:54.311Z,6.75
2022-12-05T15:09:53.257Z,8.98
2022-12-05T15:12:27.886Z,12.00
2022-12-05T15:15:07.520Z,10.50
2022-12-05T15:17:45.426Z,12.23
2022-12-05T15:20:26.237Z,12.13
2022-12-05T15:22:56.483Z,7.30
2022-12-05T15:25:32.722Z,10.55
2022-12-05T15:28:05.891Z,7.55
2022-12-05T15:30:38.205Z,8.77
2022-12-05T15:33:13.756Z,9.35
2022-12-05T15:35:51.869Z,7.93
2022-12-05T15:38:29.994Z,6.45
2022-12-05T15:41:02.556Z,7.05
2022-12-05T15:43:33.541Z,8.95
2022-12-05T15:46:29.788Z,8.27
2022-12-05T15:49:01.552Z,10.65
2022-12-05T15:51:37.434Z,9.57
2022-12-05T15:54:13.116Z,6.95
2022-12-05T15:56:49.069Z,8.88
2022-12-05T15:59:29.475Z,8.00
2022-12-05T16:02:05.935Z,9.00
2022-12-05T16:04:40.078Z,14.00
2022-12-05T16:07:12.051Z,15.25
2022-12-05T16:09:45.051Z,14.10
2022-12-05T16:12:37.010Z,9.68
2022-12-05T16:15:13.826Z,11.55
2022-12-05T16:17:44.750Z,13.10
2022-12-05T16:20:23.477Z,10.75
2022-12-05T16:22:56.471Z,8.95
2022-12-05T16:25:29.116Z,11.80
2022-12-05T16:28:01.931Z,12.52
2022-12-05T16:30:32.027Z,13.93
2022-12-05T16:33:07.252Z,12.13
2022-12-05T16:35:39.370Z,12.00
2022-12-05T16:38:16.371Z,13.43
2022-12-05T16:40:55.929Z,12.68
2022-12-05T16:43:45.968Z,14.38
2022-12-05T16:46:43.282Z,11.35
2022-12-05T16:49:36.380Z,16.25
2022-12-05T16:52:14.940Z,9.82
2022-12-05T16:54:48.499Z,8.13
2022-12-05T16:57:18.896Z,12.30
2022-12-05T16:59:50.128Z,13.77
2022-12-05T17:02:25.437Z,14.73
2022-12-05T17:04:54.853Z,13.25
2022-12-05T17:07:24.281Z,10.82
2022-12-05T17:09:53.140Z,14.45
2022-12-05T17:12:25.799Z,11.35
2022-12-05T17:14:56.200Z,15.65
2022-12-05T17:17:29.083Z,12.13
2022-12-05T17:19:58.748Z,14.68
2022-12-05T17:22:28.531Z,10.23
2022-12-05T17:25:00.444Z,13.00
2022-12-05T17:27:29.429Z,10.18
2022-12-05T17:29:59.676Z,16.73
2022-12-05T17:32:28.512Z,8.80
2022-12-05T17:35:00.092Z,12.63
2022-12-05T17:37:31.407Z,13.40
2022-12-05T17:40:02.170Z,10.35
2022-12-05T17:42:31.968Z,8.07
2022-12-05T17:45:02.458Z,11.15
2022-12-05T17:47:31.118Z,10.82
2022-12-05T17:50:00.226Z,14.48
2022-12-05T17:52:30.646Z,11.00
2022-12-05T17:55:00.614Z,14.02
2022-12-05T17:57:29.615Z,17.17
2022-12-05T17:59:58.369Z,15.60
2022-12-05T18:02:28.559Z,16.80
2022-12-05T18:04:58.855Z,19.92
2022-12-05T18:07:28.779Z,11.25
2022-12-05T18:09:57.548Z,13.82
2022-12-05T18:12:26.392Z,16.73
2022-12-05T18:14:58.139Z,10.27
2022-12-05T18:17:31.035Z,9.20
2022-12-05T18:20:00.988Z,12.32
2022-12-05T18:22:30.310Z,6.97
2022-12-05T18:25:01.055Z,10.27
2022-12-05T18:27:30.050Z,7.18
2022-12-05T18:29:59.959Z,7.88
2022-12-05T18:32:30.248Z,7.07
2022-12-05T18:35:02.414Z,11.27
2022-12-05T18:37:31.646Z,8.93
2022-12-05T18:40:00.625Z,11.88
2022-12-05T18:42:29.860Z,19.00
2022-12-05T18:44:58.895Z,17.35
2022-12-05T18:47:28.145Z,20.25
2022-12-05T18:49:59.408Z,25.38
2022-12-05T18:52:30.180Z,25.45
2022-12-05T18:55:16.299Z,22.23
2022-12-05T18:57:48.108Z,17.88
2022-12-05T19:00:18.031Z,18.98
2022-12-05T19:02:49.757Z,18.10
2022-12-05T19:05:20.911Z,18.30
2022-12-05T19:07:49.784Z,8.52
2022-12-05T19:10:18.438Z,9.45
2022-12-05T19:12:48.463Z,11.95
2022-12-05T19:15:17.361Z,12.60
2022-12-05T19:17:46.141Z,8.77
2022-12-05T19:20:15.720Z,10.35
2022-12-05T19:22:45.858Z,12.40
2022-12-05T19:25:14.418Z,12.02
2022-12-05T19:27:42.961Z,8.45
2022-12-05T19:30:12.233Z,9.30
2022-12-05T19:32:41.341Z,9.05
2022-12-05T19:35:11.141Z,12.00
2022-12-05T19:37:39.684Z,12.98
2022-12-05T19:40:10.989Z,11.23
2022-12-05T19:42:39.498Z,9.02
2022-12-05T19:45:12.258Z,10.82
2022-12-05T19:47:43.630Z,13.13
2022-12-05T19:50:12.301Z,10.65
2022-12-05T19:52:40.914Z,12.13
2022-12-05T19:55:11.898Z,15.38
2022-12-05T19:57:40.512Z,12.20
2022-12-05T20:00:10.328Z,13.55
2022-12-05T20:02:40.461Z,15.95
2022-12-05T20:05:10.188Z,14.73
2022-12-05T20:07:39.036Z,13.23
2022-12-05T20:10:08.438Z,15.35
2022-12-05T20:12:38.896Z,12.02
2022-12-05T20:15:08.781Z,13.55
2022-12-05T20:17:37.535Z,17.45
2022-12-05T20:20:07.589Z,13.55
2022-12-05T20:22:37.070Z,13.30
2022-12-05T20:25:06.888Z,14.85
2022-12-05T20:27:38.270Z,12.88
2022-12-05T20:30:09.019Z,18.48
2022-12-05T20:32:37.798Z,15.02
2022-12-05T20:35:08.349Z,14.98
2022-12-05T20:37:36.968Z,15.57
2022-12-05T20:40:06.280Z,13.25
2022-12-05T20:42:34.680Z,16.38
2022-12-05T20:45:05.321Z,16.13
2022-12-05T20:47:34.272Z,12.35
2022-12-05T20:50:02.978Z,14.95
2022-12-05T20:52:32.550Z,12.15
2022-12-05T20:55:01.289Z,14.13
2022-12-05T20:57:31.016Z,12.48
2022-12-05T21:00:00.622Z,12.32
2022-12-05T21:02:31.121Z,15.02
2022-12-05T21:04:59.778Z,10.73
2022-12-05T21:07:29.595Z,12.98
2022-12-05T21:10:06.424Z,13.82
2022-12-05T21:12:36.843Z,7.43
2022-12-05T21:15:06.020Z,15.73
2022-12-05T21:17:36.163Z,12.52
2022-12-05T21:20:05.696Z,12.98
2022-12-05T21:22:35.528Z,13.63
2022-12-05T21:25:05.660Z,11.05
2022-12-05T21:27:34.591Z,13.93
2022-12-05T21:30:03.248Z,14.30
2022-12-05T21:32:32.519Z,16.48
2022-12-05T21:35:03.882Z,13.50
2022-12-05T21:37:32.738Z,11.88
2022-12-05T21:40:02.489Z,10.73
2022-12-05T21:42:31.407Z,9.68
2022-12-05T21:45:00.228Z,10.55
2022-12-05T21:47:30.928Z,15.88
2022-12-05T21:49:59.846Z,12.63
2022-12-05T21:52:30.482Z,10.07
2022-12-05T21:54:59.138Z,9.85
2022-12-05T21:57:32.519Z,11.40
2022-12-05T22:00:01.728Z,15.07
2022-12-05T22:02:30.427Z,12.73
2022-12-05T22:05:01.432Z,8.68
2022-12-05T22:07:31.605Z,13.98
2022-12-05T22:10:00.430Z,10.40
2022-12-05T22:12:30.104Z,14.68
2022-12-05T22:14:58.885Z,14.98
2022-12-05T22:17:27.533Z,11.05
2022-12-05T22:19:57.632Z,9.73
2022-12-05T22:22:34.061Z,11.07
2022-12-05T22:25:04.536Z,11.32
2022-12-05T22:27:33.292Z,13.50
2022-12-05T22:30:02.753Z,14.60
2022-12-05T22:32:31.569Z,11.15
2022-12-05T22:35:03.679Z,10.77
2022-12-05T22:37:34.066Z,10.98
2022-12-05T22:40:04.218Z,9.95
2022-12-05T22:42:32.916Z,14.07
2022-12-05T22:45:06.197Z,11.55
2022-12-05T22:47:35.552Z,7.25
2022-12-05T22:50:05.678Z,8.05
2022-12-05T22:52:34.237Z,8.25
2022-12-05T22:55:04.838Z,8.90
2022-12-05T22:57:34.246Z,9.88
2022-12-05T23:00:02.927Z,8.73
2022-12-05T23:02:31.734Z,9.30
2022-12-05T23:05:00.578Z,13.52
2022-12-05T23:07:29.973Z,9.35
2022-12-05T23:09:58.870Z,10.85
2022-12-05T23:12:29.247Z,10.35
2022-12-05T23:14:58.277Z,6.70
2022-12-05T23:17:27.077Z,10.18
2022-12-05T23:19:55.770Z,12.38
2022-12-05T23:22:24.944Z,9.07
2022-12-05T23:24:53.767Z,8.60
2022-12-05T23:27:22.578Z,6.47
2022-12-05T23:29:52.845Z,7.53
2022-12-05T23:32:21.848Z,8.77
2022-12-05T23:34:50.586Z,5.15
2022-12-05T23:37:19.616Z,8.00
2022-12-05T23:39:48.388Z,8.05
2022-12-05T23:42:17.150Z,9.27
2022-12-05T23:44:46.606Z,7.82
2022-12-05T23:47:16.811Z,8.25
2022-12-05T23:49:46.860Z,8.38
2022-12-05T23:52:16.337Z,5.65
2022-12-05T23:54:45.473Z,5.88
2022-12-05T23:57:17.502Z,8.00
2022-12-05T23:59:46.977Z,6.18
